Astoria, Illinois
Current Conditions -  °F | °C
As of 3:55 PM on Sunday 23 Nov 2014 (Local Time) from KMQB Reporting Station
Light Rain Light Rain  
Wind Chill: 52°   Ceiling: 500
Heat Index: 52°   Visibility: 3mi
Dew Point: 52°   Wind: 9mph
Humidity: 99%   Direction: 160°SSE
Pressure: 29.37"   Gusts: NA
Location:  40.23°N, 90.36°W
Report Text: KMQB 232155Z AUTO 16008KT 3SM -RA OVC005 11/11 A2937 RMK AO2 P0004 T01130112
Loading
Personal Weather Stations






























Interactive Weather Map New forecast layout! Learn more

10-Day Weather Forecast

Advertisements
Track Severe Weather on mobile